Terminal Aerodrome Forecast
Issued by NWS Wichita, KS

Home | Current Version | Previous Version | Graphics & Text | Print | Product List | Glossary On
Versions: 1 2 3 4 5 6 7 8 9 10 11 12 13 14
849
FTUS43 KICT 270520
TAFICT
TAF
KICT 270520Z 2706/2806 11006KT P6SM SKC
     FM271400 15013G18KT P6SM SCT030
     FM271800 17013G18KT P6SM VCTS SCT050CB
     FM272300 35019G27KT P6SM VCTS BKN030CB=

USA.gov is the U.S. government's official web portal to all federal, state and local government web resources and services.